sensor_id;sensor_type;location;lat;lon;timestamp;P1;durP1;ratioP1;P2;durP2;ratioP2
36989;SDS011;22898;52.102;5.776;2022-09-12T00:00:31;3.80;;;2.80;;
36989;SDS011;22898;52.102;5.776;2022-09-12T00:02:57;5.47;;;3.17;;
36989;SDS011;22898;52.102;5.776;2022-09-12T00:05:23;2.92;;;2.55;;
36989;SDS011;22898;52.102;5.776;2022-09-12T00:07:50;3.42;;;2.70;;
36989;SDS011;22898;52.102;5.776;2022-09-12T00:10:15;2.90;;;2.45;;
36989;SDS011;22898;52.102;5.776;2022-09-12T00:12:41;3.80;;;2.58;;
36989;SDS011;22898;52.102;5.776;2022-09-12T00:15:07;3.42;;;2.38;;
36989;SDS011;22898;52.102;5.776;2022-09-12T00:17:35;2.65;;;2.28;;
36989;SDS011;22898;52.102;5.776;2022-09-12T00:20:01;2.83;;;2.53;;
36989;SDS011;22898;52.102;5.776;2022-09-12T00:22:28;2.88;;;2.25;;
36989;SDS011;22898;52.102;5.776;2022-09-12T00:24:54;4.53;;;2.47;;
36989;SDS011;22898;52.102;5.776;2022-09-12T00:27:19;3.47;;;3.17;;
36989;SDS011;22898;52.102;5.776;2022-09-12T00:29:45;3.13;;;2.70;;
36989;SDS011;22898;52.102;5.776;2022-09-12T00:32:10;4.32;;;3.63;;
36989;SDS011;22898;52.102;5.776;2022-09-12T00:34:36;3.03;;;2.72;;
36989;SDS011;22898;52.102;5.776;2022-09-12T00:37:02;5.22;;;3.72;;
36989;SDS011;22898;52.102;5.776;2022-09-12T00:39:27;3.55;;;2.67;;
36989;SDS011;22898;52.102;5.776;2022-09-12T00:41:53;3.63;;;2.88;;
36989;SDS011;22898;52.102;5.776;2022-09-12T00:46:49;3.20;;;2.45;;
36989;SDS011;22898;52.102;5.776;2022-09-12T00:51:54;2.92;;;2.55;;
36989;SDS011;22898;52.102;5.776;2022-09-12T00:54:31;3.20;;;2.90;;
36989;SDS011;22898;52.102;5.776;2022-09-12T00:57:22;3.22;;;2.60;;
36989;SDS011;22898;52.102;5.776;2022-09-12T00:59:49;4.80;;;3.65;;
36989;SDS011;22898;52.102;5.776;2022-09-12T01:02:21;4.22;;;3.35;;
36989;SDS011;22898;52.102;5.776;2022-09-12T01:04:47;4.00;;;3.05;;
36989;SDS011;22898;52.102;5.776;2022-09-12T01:07:13;4.35;;;3.80;;
36989;SDS011;22898;52.102;5.776;2022-09-12T01:09:40;2.35;;;2.15;;
36989;SDS011;22898;52.102;5.776;2022-09-12T01:12:08;2.33;;;1.95;;
36989;SDS011;22898;52.102;5.776;2022-09-12T01:14:35;3.85;;;3.38;;
36989;SDS011;22898;52.102;5.776;2022-09-12T01:17:01;4.25;;;2.78;;
36989;SDS011;22898;52.102;5.776;2022-09-12T01:25:38;4.07;;;3.33;;
36989;SDS011;22898;52.102;5.776;2022-09-12T01:28:30;3.50;;;2.80;;
36989;SDS011;22898;52.102;5.776;2022-09-12T01:31:04;3.75;;;3.22;;
36989;SDS011;22898;52.102;5.776;2022-09-12T01:33:59;5.13;;;3.67;;
36989;SDS011;22898;52.102;5.776;2022-09-12T01:36:50;2.85;;;2.53;;
36989;SDS011;22898;52.102;5.776;2022-09-12T01:44:48;4.80;;;3.63;;
36989;SDS011;22898;52.102;5.776;2022-09-12T01:47:20;2.97;;;2.67;;
36989;SDS011;22898;52.102;5.776;2022-09-12T01:49:51;3.25;;;2.95;;
36989;SDS011;22898;52.102;5.776;2022-09-12T01:52:32;3.42;;;3.13;;
36989;SDS011;22898;52.102;5.776;2022-09-12T01:55:05;7.68;;;3.55;;
36989;SDS011;22898;52.102;5.776;2022-09-12T02:00:45;5.50;;;3.55;;
36989;SDS011;22898;52.102;5.776;2022-09-12T02:03:30;6.60;;;3.25;;
36989;SDS011;22898;52.102;5.776;2022-09-12T02:06:00;8.02;;;4.63;;
36989;SDS011;22898;52.102;5.776;2022-09-12T02:08:34;4.55;;;2.72;;
36989;SDS011;22898;52.102;5.776;2022-09-12T02:16:36;4.30;;;3.90;;
36989;SDS011;22898;52.102;5.776;2022-09-12T02:19:17;3.97;;;3.58;;
36989;SDS011;22898;52.102;5.776;2022-09-12T02:21:49;3.72;;;3.10;;
36989;SDS011;22898;52.102;5.776;2022-09-12T02:24:20;3.88;;;3.25;;
36989;SDS011;22898;52.102;5.776;2022-09-12T02:26:51;7.20;;;3.83;;
36989;SDS011;22898;52.102;5.776;2022-09-12T02:29:20;4.60;;;3.15;;
36989;SDS011;22898;52.102;5.776;2022-09-12T02:32:11;4.82;;;3.53;;
36989;SDS011;22898;52.102;5.776;2022-09-12T02:34:50;4.03;;;3.00;;
36989;SDS011;22898;52.102;5.776;2022-09-12T02:40:14;3.42;;;3.10;;
36989;SDS011;22898;52.102;5.776;2022-09-12T02:42:40;4.65;;;2.97;;
36989;SDS011;22898;52.102;5.776;2022-09-12T02:45:06;2.70;;;2.47;;
36989;SDS011;22898;52.102;5.776;2022-09-12T02:47:35;4.05;;;3.42;;
36989;SDS011;22898;52.102;5.776;2022-09-12T02:50:02;4.65;;;4.05;;
36989;SDS011;22898;52.102;5.776;2022-09-12T02:52:29;5.68;;;3.90;;
36989;SDS011;22898;52.102;5.776;2022-09-12T02:54:56;3.42;;;3.13;;
36989;SDS011;22898;52.102;5.776;2022-09-12T02:57:22;6.38;;;3.65;;
36989;SDS011;22898;52.102;5.776;2022-09-12T02:59:49;2.88;;;2.22;;
36989;SDS011;22898;52.102;5.776;2022-09-12T03:05:33;3.60;;;3.30;;
36989;SDS011;22898;52.102;5.776;2022-09-12T03:08:11;4.43;;;4.03;;
36989;SDS011;22898;52.102;5.776;2022-09-12T03:13:39;4.45;;;4.03;;
36989;SDS011;22898;52.102;5.776;2022-09-12T03:19:02;4.25;;;3.40;;
36989;SDS011;22898;52.102;5.776;2022-09-12T03:24:49;3.03;;;2.75;;
36989;SDS011;22898;52.102;5.776;2022-09-12T03:27:29;5.60;;;4.57;;
36989;SDS011;22898;52.102;5.776;2022-09-12T03:30:03;3.50;;;2.70;;
36989;SDS011;22898;52.102;5.776;2022-09-12T03:32:43;3.25;;;2.95;;
36989;SDS011;22898;52.102;5.776;2022-09-12T03:35:13;5.50;;;3.97;;
36989;SDS011;22898;52.102;5.776;2022-09-12T03:37:40;5.30;;;3.92;;
36989;SDS011;22898;52.102;5.776;2022-09-12T03:40:07;4.38;;;3.53;;
36989;SDS011;22898;52.102;5.776;2022-09-12T03:42:33;3.78;;;3.38;;
36989;SDS011;22898;52.102;5.776;2022-09-12T03:44:59;5.03;;;4.45;;
36989;SDS011;22898;52.102;5.776;2022-09-12T03:47:25;6.30;;;5.30;;
36989;SDS011;22898;52.102;5.776;2022-09-12T03:49:50;7.20;;;4.53;;
36989;SDS011;22898;52.102;5.776;2022-09-12T03:52:18;8.10;;;4.32;;
36989;SDS011;22898;52.102;5.776;2022-09-12T03:54:44;7.30;;;4.90;;
36989;SDS011;22898;52.102;5.776;2022-09-12T03:57:09;5.43;;;3.90;;
36989;SDS011;22898;52.102;5.776;2022-09-12T03:59:35;5.20;;;3.70;;
36989;SDS011;22898;52.102;5.776;2022-09-12T04:02:01;5.32;;;4.70;;
36989;SDS011;22898;52.102;5.776;2022-09-12T04:04:27;6.25;;;5.03;;
36989;SDS011;22898;52.102;5.776;2022-09-12T04:06:53;5.85;;;4.20;;
36989;SDS011;22898;52.102;5.776;2022-09-12T04:09:19;5.47;;;4.97;;
36989;SDS011;22898;52.102;5.776;2022-09-12T04:11:44;5.72;;;4.63;;
36989;SDS011;22898;52.102;5.776;2022-09-12T04:14:10;8.15;;;5.60;;
36989;SDS011;22898;52.102;5.776;2022-09-12T04:16:35;5.32;;;4.65;;
36989;SDS011;22898;52.102;5.776;2022-09-12T04:19:01;7.78;;;6.97;;
36989;SDS011;22898;52.102;5.776;2022-09-12T04:21:26;4.53;;;4.13;;
36989;SDS011;22898;52.102;5.776;2022-09-12T04:23:52;9.23;;;5.07;;
36989;SDS011;22898;52.102;5.776;2022-09-12T04:26:20;4.18;;;3.08;;
36989;SDS011;22898;52.102;5.776;2022-09-12T04:28:45;5.65;;;3.97;;
36989;SDS011;22898;52.102;5.776;2022-09-12T04:31:12;5.47;;;3.42;;
36989;SDS011;22898;52.102;5.776;2022-09-12T04:33:41;5.32;;;4.63;;
36989;SDS011;22898;52.102;5.776;2022-09-12T04:36:13;4.55;;;4.03;;
36989;SDS011;22898;52.102;5.776;2022-09-12T04:38:41;5.07;;;4.57;;
36989;SDS011;22898;52.102;5.776;2022-09-12T04:43:44;6.30;;;5.10;;
36989;SDS011;22898;52.102;5.776;2022-09-12T04:46:12;5.10;;;4.22;;
36989;SDS011;22898;52.102;5.776;2022-09-12T04:48:39;10.77;;;5.88;;
36989;SDS011;22898;52.102;5.776;2022-09-12T04:53:39;4.22;;;3.53;;
36989;SDS011;22898;52.102;5.776;2022-09-12T04:56:07;5.65;;;3.60;;
36989;SDS011;22898;52.102;5.776;2022-09-12T04:58:34;4.57;;;3.65;;
36989;SDS011;22898;52.102;5.776;2022-09-12T05:01:07;4.70;;;3.42;;
36989;SDS011;22898;52.102;5.776;2022-09-12T05:03:34;6.85;;;4.70;;
36989;SDS011;22898;52.102;5.776;2022-09-12T05:06:03;6.05;;;4.97;;
36989;SDS011;22898;52.102;5.776;2022-09-12T05:08:29;9.95;;;6.25;;
36989;SDS011;22898;52.102;5.776;2022-09-12T05:10:55;7.63;;;5.45;;
36989;SDS011;22898;52.102;5.776;2022-09-12T05:13:25;5.70;;;4.07;;
36989;SDS011;22898;52.102;5.776;2022-09-12T05:15:55;7.78;;;5.80;;
36989;SDS011;22898;52.102;5.776;2022-09-12T05:18:21;6.75;;;4.28;;
36989;SDS011;22898;52.102;5.776;2022-09-12T05:20:47;7.03;;;4.70;;
36989;SDS011;22898;52.102;5.776;2022-09-12T05:23:13;8.70;;;5.15;;
36989;SDS011;22898;52.102;5.776;2022-09-12T05:25:38;5.18;;;4.68;;
36989;SDS011;22898;52.102;5.776;2022-09-12T05:28:04;6.43;;;5.50;;
36989;SDS011;22898;52.102;5.776;2022-09-12T05:30:29;4.88;;;4.18;;
36989;SDS011;22898;52.102;5.776;2022-09-12T05:32:55;7.60;;;5.38;;
36989;SDS011;22898;52.102;5.776;2022-09-12T05:35:20;6.93;;;5.40;;
36989;SDS011;22898;52.102;5.776;2022-09-12T05:37:46;13.45;;;6.60;;
36989;SDS011;22898;52.102;5.776;2022-09-12T05:40:11;4.78;;;3.95;;
36989;SDS011;22898;52.102;5.776;2022-09-12T05:42:41;6.13;;;4.63;;
36989;SDS011;22898;52.102;5.776;2022-09-12T05:45:07;6.75;;;4.63;;
36989;SDS011;22898;52.102;5.776;2022-09-12T05:47:32;7.55;;;4.82;;
36989;SDS011;22898;52.102;5.776;2022-09-12T05:49:58;5.50;;;4.13;;
36989;SDS011;22898;52.102;5.776;2022-09-12T05:52:23;11.85;;;5.72;;
36989;SDS011;22898;52.102;5.776;2022-09-12T05:54:49;6.50;;;5.40;;
36989;SDS011;22898;52.102;5.776;2022-09-12T05:57:14;10.93;;;5.57;;
36989;SDS011;22898;52.102;5.776;2022-09-12T05:59:40;5.90;;;4.93;;
36989;SDS011;22898;52.102;5.776;2022-09-12T06:02:07;5.95;;;4.68;;
36989;SDS011;22898;52.102;5.776;2022-09-12T06:04:34;8.07;;;7.20;;
36989;SDS011;22898;52.102;5.776;2022-09-12T06:07:00;4.97;;;3.72;;
36989;SDS011;22898;52.102;5.776;2022-09-12T06:09:25;7.75;;;5.47;;
36989;SDS011;22898;52.102;5.776;2022-09-12T06:11:52;12.00;;;5.82;;
36989;SDS011;22898;52.102;5.776;2022-09-12T06:14:17;7.78;;;5.28;;
36989;SDS011;22898;52.102;5.776;2022-09-12T06:16:43;7.65;;;5.85;;
36989;SDS011;22898;52.102;5.776;2022-09-12T06:19:13;9.73;;;5.80;;
36989;SDS011;22898;52.102;5.776;2022-09-12T06:21:43;11.00;;;5.53;;
36989;SDS011;22898;52.102;5.776;2022-09-12T06:24:10;6.45;;;5.53;;
36989;SDS011;22898;52.102;5.776;2022-09-12T06:26:35;8.48;;;6.38;;
36989;SDS011;22898;52.102;5.776;2022-09-12T06:29:01;8.00;;;6.47;;
36989;SDS011;22898;52.102;5.776;2022-09-12T06:31:31;11.18;;;6.57;;
36989;SDS011;22898;52.102;5.776;2022-09-12T06:33:59;6.95;;;4.88;;
36989;SDS011;22898;52.102;5.776;2022-09-12T06:36:27;9.70;;;7.63;;
36989;SDS011;22898;52.102;5.776;2022-09-12T06:38:54;8.50;;;6.15;;
36989;SDS011;22898;52.102;5.776;2022-09-12T06:41:22;6.80;;;6.03;;
36989;SDS011;22898;52.102;5.776;2022-09-12T06:43:49;11.85;;;8.68;;
36989;SDS011;22898;52.102;5.776;2022-09-12T06:46:14;8.55;;;6.82;;
36989;SDS011;22898;52.102;5.776;2022-09-12T06:48:40;10.27;;;7.13;;
36989;SDS011;22898;52.102;5.776;2022-09-12T06:51:08;9.45;;;6.10;;
36989;SDS011;22898;52.102;5.776;2022-09-12T06:53:35;8.57;;;5.93;;
36989;SDS011;22898;52.102;5.776;2022-09-12T06:56:03;6.60;;;5.85;;
36989;SDS011;22898;52.102;5.776;2022-09-12T06:58:31;12.25;;;6.72;;
36989;SDS011;22898;52.102;5.776;2022-09-12T07:01:04;6.00;;;5.28;;
36989;SDS011;22898;52.102;5.776;2022-09-12T07:03:34;6.45;;;5.78;;
36989;SDS011;22898;52.102;5.776;2022-09-12T07:06:04;9.27;;;6.65;;
36989;SDS011;22898;52.102;5.776;2022-09-12T07:08:31;6.82;;;5.68;;
36989;SDS011;22898;52.102;5.776;2022-09-12T07:10:59;8.68;;;5.35;;
36989;SDS011;22898;52.102;5.776;2022-09-12T07:13:31;8.55;;;7.20;;
36989;SDS011;22898;52.102;5.776;2022-09-12T07:16:00;7.88;;;6.38;;
36989;SDS011;22898;52.102;5.776;2022-09-12T07:18:26;9.23;;;6.57;;
36989;SDS011;22898;52.102;5.776;2022-09-12T07:20:52;8.48;;;6.15;;
36989;SDS011;22898;52.102;5.776;2022-09-12T07:23:17;6.95;;;5.50;;
36989;SDS011;22898;52.102;5.776;2022-09-12T07:25:43;9.55;;;6.93;;
36989;SDS011;22898;52.102;5.776;2022-09-12T07:28:15;6.22;;;4.72;;
36989;SDS011;22898;52.102;5.776;2022-09-12T07:30:41;6.63;;;4.45;;
36989;SDS011;22898;52.102;5.776;2022-09-12T07:33:06;10.27;;;6.68;;
36989;SDS011;22898;52.102;5.776;2022-09-12T07:35:32;11.07;;;6.10;;
36989;SDS011;22898;52.102;5.776;2022-09-12T07:37:58;9.30;;;5.70;;
36989;SDS011;22898;52.102;5.776;2022-09-12T07:40:23;8.20;;;7.30;;
36989;SDS011;22898;52.102;5.776;2022-09-12T07:42:49;10.60;;;6.45;;
36989;SDS011;22898;52.102;5.776;2022-09-12T07:45:15;16.60;;;7.18;;
36989;SDS011;22898;52.102;5.776;2022-09-12T07:47:40;8.05;;;5.75;;
36989;SDS011;22898;52.102;5.776;2022-09-12T07:50:06;9.18;;;7.95;;
36989;SDS011;22898;52.102;5.776;2022-09-12T07:52:32;8.25;;;6.07;;
36989;SDS011;22898;52.102;5.776;2022-09-12T07:54:57;7.07;;;4.18;;
36989;SDS011;22898;52.102;5.776;2022-09-12T07:57:23;8.02;;;7.00;;
36989;SDS011;22898;52.102;5.776;2022-09-12T07:59:49;12.30;;;7.03;;
36989;SDS011;22898;52.102;5.776;2022-09-12T08:02:15;6.15;;;5.55;;
36989;SDS011;22898;52.102;5.776;2022-09-12T08:04:40;10.18;;;7.05;;
36989;SDS011;22898;52.102;5.776;2022-09-12T08:07:07;11.23;;;7.72;;
36989;SDS011;22898;52.102;5.776;2022-09-12T08:09:33;7.68;;;5.32;;
36989;SDS011;22898;52.102;5.776;2022-09-12T08:11:59;7.40;;;5.28;;
36989;SDS011;22898;52.102;5.776;2022-09-12T08:14:26;11.63;;;5.90;;
36989;SDS011;22898;52.102;5.776;2022-09-12T08:16:51;9.82;;;5.60;;
36989;SDS011;22898;52.102;5.776;2022-09-12T08:19:17;8.13;;;6.55;;
36989;SDS011;22898;52.102;5.776;2022-09-12T08:21:43;9.25;;;5.53;;
36989;SDS011;22898;52.102;5.776;2022-09-12T08:24:09;6.60;;;4.72;;
36989;SDS011;22898;52.102;5.776;2022-09-12T08:26:36;10.55;;;6.00;;
36989;SDS011;22898;52.102;5.776;2022-09-12T08:29:02;7.43;;;5.80;;
36989;SDS011;22898;52.102;5.776;2022-09-12T08:31:28;6.80;;;5.28;;
36989;SDS011;22898;52.102;5.776;2022-09-12T08:34:00;8.63;;;5.72;;
36989;SDS011;22898;52.102;5.776;2022-09-12T08:36:26;7.00;;;4.97;;
36989;SDS011;22898;52.102;5.776;2022-09-12T08:38:54;10.32;;;5.22;;
36989;SDS011;22898;52.102;5.776;2022-09-12T08:41:31;6.35;;;4.10;;
36989;SDS011;22898;52.102;5.776;2022-09-12T08:52:26;13.93;;;5.13;;
36989;SDS011;22898;52.102;5.776;2022-09-12T08:54:57;7.45;;;6.00;;
36989;SDS011;22898;52.102;5.776;2022-09-12T08:57:22;6.65;;;4.15;;
36989;SDS011;22898;52.102;5.776;2022-09-12T08:59:48;7.07;;;5.75;;
36989;SDS011;22898;52.102;5.776;2022-09-12T09:02:25;9.27;;;5.65;;
36989;SDS011;22898;52.102;5.776;2022-09-12T09:05:10;4.35;;;3.40;;
36989;SDS011;22898;52.102;5.776;2022-09-12T09:13:08;5.38;;;3.35;;
36989;SDS011;22898;52.102;5.776;2022-09-12T09:16:06;8.38;;;3.97;;
36989;SDS011;22898;52.102;5.776;2022-09-12T09:18:42;5.82;;;3.35;;
36989;SDS011;22898;52.102;5.776;2022-09-12T09:24:10;4.38;;;3.30;;
36989;SDS011;22898;52.102;5.776;2022-09-12T09:26:40;5.53;;;3.78;;
36989;SDS011;22898;52.102;5.776;2022-09-12T09:29:23;4.68;;;3.28;;
36989;SDS011;22898;52.102;5.776;2022-09-12T09:31:54;3.78;;;2.75;;
36989;SDS011;22898;52.102;5.776;2022-09-12T09:34:25;4.60;;;3.53;;
36989;SDS011;22898;52.102;5.776;2022-09-12T09:37:10;4.72;;;3.75;;
36989;SDS011;22898;52.102;5.776;2022-09-12T09:45:12;6.35;;;3.67;;
36989;SDS011;22898;52.102;5.776;2022-09-12T09:47:43;7.13;;;3.95;;
36989;SDS011;22898;52.102;5.776;2022-09-12T09:50:22;3.08;;;2.78;;
36989;SDS011;22898;52.102;5.776;2022-09-12T09:52:48;4.18;;;3.20;;
36989;SDS011;22898;52.102;5.776;2022-09-12T09:55:24;3.88;;;2.95;;
36989;SDS011;22898;52.102;5.776;2022-09-12T09:57:54;3.80;;;2.75;;
36989;SDS011;22898;52.102;5.776;2022-09-12T10:05:51;4.47;;;3.40;;
36989;SDS011;22898;52.102;5.776;2022-09-12T10:08:48;5.82;;;3.33;;
36989;SDS011;22898;52.102;5.776;2022-09-12T10:16:25;5.30;;;2.33;;
36989;SDS011;22898;52.102;5.776;2022-09-12T10:19:21;4.90;;;3.25;;
36989;SDS011;22898;52.102;5.776;2022-09-12T10:21:52;4.50;;;2.20;;
36989;SDS011;22898;52.102;5.776;2022-09-12T10:24:35;2.42;;;1.80;;
36989;SDS011;22898;52.102;5.776;2022-09-12T10:27:07;4.65;;;2.33;;
36989;SDS011;22898;52.102;5.776;2022-09-12T10:29:43;2.80;;;1.98;;
36989;SDS011;22898;52.102;5.776;2022-09-12T10:32:26;4.50;;;2.05;;
36989;SDS011;22898;52.102;5.776;2022-09-12T10:34:56;3.75;;;2.60;;
36989;SDS011;22898;52.102;5.776;2022-09-12T10:37:28;2.47;;;1.90;;
36989;SDS011;22898;52.102;5.776;2022-09-12T10:39:57;4.50;;;2.70;;
36989;SDS011;22898;52.102;5.776;2022-09-12T10:45:20;3.05;;;2.10;;
36989;SDS011;22898;52.102;5.776;2022-09-12T10:47:48;3.20;;;2.42;;
36989;SDS011;22898;52.102;5.776;2022-09-12T10:50:17;2.92;;;2.08;;
36989;SDS011;22898;52.102;5.776;2022-09-12T10:52:47;3.35;;;1.88;;
36989;SDS011;22898;52.102;5.776;2022-09-12T10:55:13;4.40;;;2.67;;
36989;SDS011;22898;52.102;5.776;2022-09-12T11:00:20;2.25;;;1.83;;
36989;SDS011;22898;52.102;5.776;2022-09-12T11:10:40;2.33;;;2.00;;
36989;SDS011;22898;52.102;5.776;2022-09-12T11:13:32;15.90;;;3.40;;
36989;SDS011;22898;52.102;5.776;2022-09-12T11:30:18;3.05;;;2.10;;
36989;SDS011;22898;52.102;5.776;2022-09-12T11:32:46;2.63;;;2.15;;
36989;SDS011;22898;52.102;5.776;2022-09-12T11:35:30;2.08;;;1.73;;
36989;SDS011;22898;52.102;5.776;2022-09-12T11:40:52;2.53;;;1.60;;
36989;SDS011;22898;52.102;5.776;2022-09-12T11:46:21;9.57;;;3.92;;
36989;SDS011;22898;52.102;5.776;2022-09-12T11:51:24;4.78;;;1.90;;
36989;SDS011;22898;52.102;5.776;2022-09-12T11:53:57;3.42;;;2.40;;
36989;SDS011;22898;52.102;5.776;2022-09-12T11:56:30;2.33;;;1.95;;
36989;SDS011;22898;52.102;5.776;2022-09-12T11:59:09;3.13;;;1.85;;
36989;SDS011;22898;52.102;5.776;2022-09-12T12:01:41;6.30;;;2.20;;
36989;SDS011;22898;52.102;5.776;2022-09-12T12:04:11;2.55;;;1.98;;
36989;SDS011;22898;52.102;5.776;2022-09-12T12:07:03;1.67;;;1.58;;
36989;SDS011;22898;52.102;5.776;2022-09-12T12:09:29;2.78;;;1.52;;
36989;SDS011;22898;52.102;5.776;2022-09-12T12:11:55;2.05;;;1.85;;
36989;SDS011;22898;52.102;5.776;2022-09-12T12:14:25;2.13;;;1.75;;
36989;SDS011;22898;52.102;5.776;2022-09-12T12:17:15;1.80;;;1.65;;
36989;SDS011;22898;52.102;5.776;2022-09-12T12:19:42;1.95;;;1.75;;
36989;SDS011;22898;52.102;5.776;2022-09-12T12:22:14;1.90;;;1.45;;
36989;SDS011;22898;52.102;5.776;2022-09-12T12:27:23;2.60;;;2.03;;
36989;SDS011;22898;52.102;5.776;2022-09-12T12:33:14;3.28;;;1.95;;
36989;SDS011;22898;52.102;5.776;2022-09-12T12:38:33;1.63;;;1.52;;
36989;SDS011;22898;52.102;5.776;2022-09-12T12:43:52;2.45;;;1.77;;
36989;SDS011;22898;52.102;5.776;2022-09-12T12:46:26;1.38;;;1.27;;
36989;SDS011;22898;52.102;5.776;2022-09-12T12:48:54;6.13;;;2.20;;
36989;SDS011;22898;52.102;5.776;2022-09-12T12:51:37;1.55;;;1.45;;
36989;SDS011;22898;52.102;5.776;2022-09-12T12:57:29;1.73;;;1.40;;
36989;SDS011;22898;52.102;5.776;2022-09-12T12:59:58;1.73;;;1.60;;
36989;SDS011;22898;52.102;5.776;2022-09-12T13:02:48;3.65;;;1.40;;
36989;SDS011;22898;52.102;5.776;2022-09-12T13:05:40;3.23;;;1.87;;
36989;SDS011;22898;52.102;5.776;2022-09-12T13:10:51;3.17;;;2.13;;
36989;SDS011;22898;52.102;5.776;2022-09-12T13:16:31;2.97;;;1.90;;
36989;SDS011;22898;52.102;5.776;2022-09-12T13:19:02;1.40;;;1.20;;
36989;SDS011;22898;52.102;5.776;2022-09-12T13:21:35;1.80;;;1.55;;
36989;SDS011;22898;52.102;5.776;2022-09-12T13:24:21;1.90;;;1.67;;
36989;SDS011;22898;52.102;5.776;2022-09-12T13:26:47;1.63;;;1.52;;
36989;SDS011;22898;52.102;5.776;2022-09-12T13:29:17;2.35;;;1.85;;
36989;SDS011;22898;52.102;5.776;2022-09-12T13:31:48;1.55;;;1.38;;
36989;SDS011;22898;52.102;5.776;2022-09-12T13:34:19;2.38;;;1.75;;
36989;SDS011;22898;52.102;5.776;2022-09-12T13:36:53;2.88;;;1.80;;
36989;SDS011;22898;52.102;5.776;2022-09-12T13:42:52;2.25;;;2.03;;
36989;SDS011;22898;52.102;5.776;2022-09-12T13:45:34;3.42;;;2.22;;
36989;SDS011;22898;52.102;5.776;2022-09-12T13:48:03;2.40;;;1.75;;
36989;SDS011;22898;52.102;5.776;2022-09-12T13:50:41;1.80;;;1.60;;
36989;SDS011;22898;52.102;5.776;2022-09-12T13:53:15;1.25;;;1.15;;
36989;SDS011;22898;52.102;5.776;2022-09-12T13:55:47;3.40;;;1.67;;
36989;SDS011;22898;52.102;5.776;2022-09-12T13:58:18;1.38;;;1.23;;
36989;SDS011;22898;52.102;5.776;2022-09-12T14:00:44;2.03;;;1.75;;
36989;SDS011;22898;52.102;5.776;2022-09-12T14:03:23;2.55;;;1.90;;
36989;SDS011;22898;52.102;5.776;2022-09-12T14:06:12;1.83;;;1.60;;
36989;SDS011;22898;52.102;5.776;2022-09-12T14:08:40;1.95;;;1.67;;
36989;SDS011;22898;52.102;5.776;2022-09-12T14:11:08;1.83;;;1.63;;
36989;SDS011;22898;52.102;5.776;2022-09-12T14:13:35;1.70;;;1.58;;
36989;SDS011;22898;52.102;5.776;2022-09-12T14:16:05;2.70;;;1.55;;
36989;SDS011;22898;52.102;5.776;2022-09-12T14:18:33;1.80;;;1.45;;
36989;SDS011;22898;52.102;5.776;2022-09-12T14:21:07;2.03;;;1.80;;
36989;SDS011;22898;52.102;5.776;2022-09-12T14:23:36;2.17;;;1.67;;
36989;SDS011;22898;52.102;5.776;2022-09-12T14:26:07;3.75;;;2.25;;
36989;SDS011;22898;52.102;5.776;2022-09-12T14:28:35;2.33;;;1.52;;
36989;SDS011;22898;52.102;5.776;2022-09-12T14:31:08;1.50;;;1.40;;
36989;SDS011;22898;52.102;5.776;2022-09-12T14:33:50;1.98;;;1.67;;
36989;SDS011;22898;52.102;5.776;2022-09-12T14:36:22;2.15;;;1.65;;
36989;SDS011;22898;52.102;5.776;2022-09-12T14:38:49;2.83;;;1.80;;
36989;SDS011;22898;52.102;5.776;2022-09-12T14:41:25;2.80;;;2.08;;
36989;SDS011;22898;52.102;5.776;2022-09-12T14:43:55;1.77;;;1.48;;
36989;SDS011;22898;52.102;5.776;2022-09-12T14:46:34;2.38;;;1.60;;
36989;SDS011;22898;52.102;5.776;2022-09-12T14:49:30;2.22;;;1.67;;
36989;SDS011;22898;52.102;5.776;2022-09-12T14:52:03;2.47;;;1.83;;
36989;SDS011;22898;52.102;5.776;2022-09-12T15:04:46;3.08;;;2.10;;
36989;SDS011;22898;52.102;5.776;2022-09-12T15:09:57;1.30;;;1.20;;
36989;SDS011;22898;52.102;5.776;2022-09-12T15:12:24;2.30;;;1.50;;
36989;SDS011;22898;52.102;5.776;2022-09-12T15:14:50;1.73;;;1.42;;
36989;SDS011;22898;52.102;5.776;2022-09-12T15:17:16;1.50;;;1.40;;
36989;SDS011;22898;52.102;5.776;2022-09-12T15:19:41;1.73;;;1.33;;
36989;SDS011;22898;52.102;5.776;2022-09-12T15:22:09;1.35;;;1.25;;
36989;SDS011;22898;52.102;5.776;2022-09-12T15:24:36;1.40;;;1.30;;
36989;SDS011;22898;52.102;5.776;2022-09-12T15:27:04;1.83;;;1.50;;
36989;SDS011;22898;52.102;5.776;2022-09-12T15:29:34;1.20;;;1.10;;
36989;SDS011;22898;52.102;5.776;2022-09-12T15:32:00;1.50;;;1.40;;
36989;SDS011;22898;52.102;5.776;2022-09-12T15:34:26;1.38;;;1.27;;
36989;SDS011;22898;52.102;5.776;2022-09-12T15:36:51;1.42;;;1.33;;
36989;SDS011;22898;52.102;5.776;2022-09-12T15:39:17;1.60;;;1.30;;
36989;SDS011;22898;52.102;5.776;2022-09-12T15:41:42;1.88;;;1.20;;
36989;SDS011;22898;52.102;5.776;2022-09-12T15:44:10;1.42;;;1.20;;
36989;SDS011;22898;52.102;5.776;2022-09-12T15:46:36;1.55;;;1.30;;
36989;SDS011;22898;52.102;5.776;2022-09-12T15:49:02;2.00;;;1.52;;
36989;SDS011;22898;52.102;5.776;2022-09-12T15:51:28;1.63;;;1.40;;
36989;SDS011;22898;52.102;5.776;2022-09-12T15:53:53;2.00;;;1.40;;
36989;SDS011;22898;52.102;5.776;2022-09-12T15:56:20;1.13;;;1.02;;
36989;SDS011;22898;52.102;5.776;2022-09-12T15:58:47;1.40;;;1.30;;
36989;SDS011;22898;52.102;5.776;2022-09-12T16:01:14;1.55;;;1.35;;
36989;SDS011;22898;52.102;5.776;2022-09-12T16:03:41;1.33;;;1.23;;
36989;SDS011;22898;52.102;5.776;2022-09-12T16:06:07;2.03;;;1.42;;
36989;SDS011;22898;52.102;5.776;2022-09-12T16:08:33;1.90;;;1.48;;
36989;SDS011;22898;52.102;5.776;2022-09-12T16:11:01;1.92;;;1.58;;
36989;SDS011;22898;52.102;5.776;2022-09-12T16:13:40;2.10;;;1.55;;
36989;SDS011;22898;52.102;5.776;2022-09-12T16:16:05;1.88;;;1.50;;
36989;SDS011;22898;52.102;5.776;2022-09-12T16:18:31;1.80;;;1.48;;
36989;SDS011;22898;52.102;5.776;2022-09-12T16:20:57;1.52;;;1.33;;
36989;SDS011;22898;52.102;5.776;2022-09-12T16:23:22;4.30;;;2.00;;
36989;SDS011;22898;52.102;5.776;2022-09-12T16:25:58;2.83;;;1.67;;
36989;SDS011;22898;52.102;5.776;2022-09-12T16:28:25;2.75;;;1.50;;
36989;SDS011;22898;52.102;5.776;2022-09-12T16:30:58;2.35;;;1.73;;
36989;SDS011;22898;52.102;5.776;2022-09-12T16:33:25;2.15;;;1.40;;
36989;SDS011;22898;52.102;5.776;2022-09-12T16:35:52;1.45;;;1.30;;
36989;SDS011;22898;52.102;5.776;2022-09-12T16:38:25;2.07;;;1.70;;
36989;SDS011;22898;52.102;5.776;2022-09-12T16:40:50;1.73;;;1.33;;
36989;SDS011;22898;52.102;5.776;2022-09-12T16:43:16;2.15;;;1.55;;
36989;SDS011;22898;52.102;5.776;2022-09-12T16:45:42;1.90;;;1.52;;
36989;SDS011;22898;52.102;5.776;2022-09-12T16:48:08;2.45;;;1.67;;
36989;SDS011;22898;52.102;5.776;2022-09-12T16:50:34;1.58;;;1.38;;
36989;SDS011;22898;52.102;5.776;2022-09-12T16:52:59;1.65;;;1.38;;
36989;SDS011;22898;52.102;5.776;2022-09-12T16:55:25;2.38;;;1.50;;
36989;SDS011;22898;52.102;5.776;2022-09-12T16:57:52;3.00;;;2.15;;
36989;SDS011;22898;52.102;5.776;2022-09-12T17:00:18;2.00;;;1.52;;
36989;SDS011;22898;52.102;5.776;2022-09-12T17:02:44;1.80;;;1.50;;
36989;SDS011;22898;52.102;5.776;2022-09-12T17:05:11;2.63;;;1.40;;
36989;SDS011;22898;52.102;5.776;2022-09-12T17:07:39;2.80;;;1.70;;
36989;SDS011;22898;52.102;5.776;2022-09-12T17:10:05;1.20;;;1.10;;
36989;SDS011;22898;52.102;5.776;2022-09-12T17:12:31;2.63;;;2.00;;
36989;SDS011;22898;52.102;5.776;2022-09-12T17:14:57;2.67;;;1.63;;
36989;SDS011;22898;52.102;5.776;2022-09-12T17:17:22;3.13;;;1.92;;
36989;SDS011;22898;52.102;5.776;2022-09-12T17:19:48;5.57;;;2.63;;
36989;SDS011;22898;52.102;5.776;2022-09-12T17:22:14;2.00;;;1.80;;
36989;SDS011;22898;52.102;5.776;2022-09-12T17:24:39;2.83;;;1.95;;
36989;SDS011;22898;52.102;5.776;2022-09-12T17:27:05;2.75;;;1.70;;
36989;SDS011;22898;52.102;5.776;2022-09-12T17:29:31;1.60;;;1.40;;
36989;SDS011;22898;52.102;5.776;2022-09-12T17:31:59;1.65;;;1.45;;
36989;SDS011;22898;52.102;5.776;2022-09-12T17:34:24;2.63;;;1.70;;